Time;durP1;ratioP1;P1;durP2;ratioP2;P2;SDS_P1;SDS_P2;PMS_P1;PMS_P2;Temp;Humidity;BMP_temperature;BMP_pressure;BME280_temperature;BME280_humidity;BME280_pressure;Samples;Min_cycle;Max_cycle;Signal;HPM_P1;HPM_P2
2022/06/20 00:00:57;;;;;;;;;;;;;;;14.14;69.00;101152.03;5045889;28;20154;-91
2022/06/20 00:03:27;;;;;;;;;;;;;;;14.09;69.69;101154.16;5044577;28;20285;-90
2022/06/20 00:05:52;;;;;;;;;;;;;;;14.07;68.90;101155.19;5039931;28;19917;-90
2022/06/20 00:08:18;;;;;;;;;;;;;;;14.05;69.13;101131.19;5038273;28;20361;-90
2022/06/20 00:10:44;;;;;;;;;;;;;;;14.04;68.88;101128.59;5050117;28;19916;-91
2022/06/20 00:13:17;;;;;;;;;;;;;;;13.99;70.26;101136.03;5047698;28;20430;-91
2022/06/20 00:15:42;;;;;;;;;;;;;;;13.94;69.59;101169.28;5045430;28;19920;-91
2022/06/20 00:18:07;;;;;;;;;;;;;;;13.97;69.31;101184.31;5042596;28;20289;-91
2022/06/20 00:20:32;;;;;;;;;;;;;;;14.00;70.83;101175.22;5047521;28;19964;-92
2022/06/20 00:22:58;;;;;;;;;;;;;;;13.99;69.52;101186.91;5041659;28;20192;-91
2022/06/20 00:25:23;;;;;;;;;;;;;;;14.00;68.78;101202.00;5043426;28;19927;-92
2022/06/20 00:27:50;;;;;;;;;;;;;;;14.03;68.74;101217.88;5048460;28;20263;-91
2022/06/20 00:30:16;;;;;;;;;;;;;;;14.05;69.19;101227.56;5048641;28;19923;-91
2022/06/20 00:32:42;;;;;;;;;;;;;;;14.08;68.72;101232.69;5051313;28;19916;-91
2022/06/20 00:35:07;;;;;;;;;;;;;;;14.10;68.39;101236.16;5038559;28;20039;-91
2022/06/20 00:37:32;;;;;;;;;;;;;;;14.09;69.58;101239.81;5044568;28;20266;-89
2022/06/20 00:39:58;;;;;;;;;;;;;;;14.10;69.01;101244.19;5045493;28;19974;-90
2022/06/20 00:42:23;;;;;;;;;;;;;;;14.10;69.01;101270.97;5050528;28;20401;-91
2022/06/20 00:44:52;;;;;;;;;;;;;;;14.13;68.74;101300.25;5048812;28;19921;-90
2022/06/20 00:47:20;;;;;;;;;;;;;;;14.18;68.54;101340.13;5034983;28;19936;-92
2022/06/20 00:49:49;;;;;;;;;;;;;;;14.24;68.56;101382.59;5040933;28;19924;-91
2022/06/20 00:52:17;;;;;;;;;;;;;;;14.26;67.88;101411.97;5031915;28;20381;-91
2022/06/20 00:54:56;;;;;;;;;;;;;;;14.29;68.42;101423.34;5045497;28;19927;-90
2022/06/20 00:57:25;;;;;;;;;;;;;;;14.34;68.16;101423.09;5040606;28;19924;-92
2022/06/20 01:00:09;;;;;;;;;;;;;;;14.35;67.58;101380.16;5045581;28;19928;-90
2022/06/20 01:02:38;;;;;;;;;;;;;;;14.35;67.29;101352.53;5044868;28;19917;-90
2022/06/20 01:05:13;;;;;;;;;;;;;;;14.38;67.77;101355.00;5048402;28;19920;-90
2022/06/20 01:07:45;;;;;;;;;;;;;;;14.39;67.26;101329.97;5037294;28;19931;-89
2022/06/20 01:10:12;;;;;;;;;;;;;;;14.40;66.99;101312.94;5047642;28;19917;-90
2022/06/20 01:12:44;;;;;;;;;;;;;;;14.35;68.25;101320.38;5039112;28;19917;-91
2022/06/20 01:15:21;;;;;;;;;;;;;;;14.23;68.25;101329.13;5040233;28;20007;-90
2022/06/20 01:17:47;;;;;;;;;;;;;;;14.17;68.70;101303.56;5041404;28;19917;-90
2022/06/20 01:20:16;;;;;;;;;;;;;;;14.12;68.08;101287.78;5050932;28;19924;-91
2022/06/20 01:22:42;;;;;;;;;;;;;;;14.07;69.58;101272.94;5046380;28;20262;-90
2022/06/20 01:25:19;;;;;;;;;;;;;;;14.02;67.95;101275.03;5042648;28;19999;-91
2022/06/20 01:27:45;;;;;;;;;;;;;;;13.98;67.98;101254.75;5042876;28;19964;-91
2022/06/20 01:30:11;;;;;;;;;;;;;;;13.92;67.62;101235.44;5048580;28;20294;-90
2022/06/20 01:32:37;;;;;;;;;;;;;;;13.86;69.98;101238.47;5046626;28;19912;-91
2022/06/20 01:35:05;;;;;;;;;;;;;;;13.77;69.08;101228.31;5040594;28;20240;-90
2022/06/20 01:37:34;;;;;;;;;;;;;;;13.68;70.54;101232.38;5044884;28;20382;-91
2022/06/20 01:40:01;;;;;;;;;;;;;;;13.60;70.58;101226.59;5034977;28;19956;-91
2022/06/20 01:42:28;;;;;;;;;;;;;;;13.54;70.68;101215.38;5044091;28;19917;-90
2022/06/20 01:45:00;;;;;;;;;;;;;;;13.50;70.69;101214.69;5040221;28;19913;-90
2022/06/20 01:47:25;;;;;;;;;;;;;;;13.46;71.28;101189.09;5046430;28;19917;-90
2022/06/20 01:49:52;;;;;;;;;;;;;;;13.40;70.92;101187.63;5038247;28;19998;-91
2022/06/20 01:52:18;;;;;;;;;;;;;;;13.34;69.86;101187.97;5039742;28;19952;-90
2022/06/20 01:54:46;;;;;;;;;;;;;;;13.38;69.56;101188.69;5045988;28;20088;-91
2022/06/20 01:57:12;;;;;;;;;;;;;;;13.37;70.31;101185.13;5033051;28;19940;-91
2022/06/20 01:59:45;;;;;;;;;;;;;;;13.40;71.13;101176.94;5034147;28;19972;-91
2022/06/20 02:02:11;;;;;;;;;;;;;;;13.37;71.65;101165.53;5052059;28;19928;-91
2022/06/20 02:04:37;;;;;;;;;;;;;;;13.31;72.12;101169.44;5038964;28;19917;-91
2022/06/20 02:07:05;;;;;;;;;;;;;;;13.32;73.48;101168.47;5063036;28;19924;-91
2022/06/20 02:09:30;;;;;;;;;;;;;;;13.34;71.36;101173.75;5043604;28;19916;-91
2022/06/20 02:11:55;;;;;;;;;;;;;;;13.33;70.96;101175.53;5044110;28;19921;-91
2022/06/20 02:14:28;;;;;;;;;;;;;;;13.32;72.54;101179.16;5040595;28;20245;-91
2022/06/20 02:16:58;;;;;;;;;;;;;;;13.32;72.79;101162.28;5034741;28;20087;-91
2022/06/20 02:19:29;;;;;;;;;;;;;;;13.29;73.66;101157.09;5036714;28;20336;-92
2022/06/20 02:21:57;;;;;;;;;;;;;;;13.31;71.30;101163.22;5045690;28;20011;-91
2022/06/20 02:24:27;;;;;;;;;;;;;;;13.34;71.17;101163.06;5047524;28;19916;-91
2022/06/20 02:26:54;;;;;;;;;;;;;;;13.33;71.82;101155.97;5038177;28;20136;-91
2022/06/20 02:29:22;;;;;;;;;;;;;;;13.31;73.49;101152.53;5050286;28;19920;-91
2022/06/20 02:31:59;;;;;;;;;;;;;;;13.25;73.37;101144.84;5051071;28;19967;-91
2022/06/20 02:34:26;;;;;;;;;;;;;;;13.21;72.99;101141.50;5070064;28;20305;-90
2022/06/20 02:36:52;;;;;;;;;;;;;;;13.18;72.09;101126.47;5050561;28;20385;-92
2022/06/20 02:39:18;;;;;;;;;;;;;;;13.22;72.75;101140.53;5055220;28;19920;-91
2022/06/20 02:41:46;;;;;;;;;;;;;;;13.24;71.17;101140.47;5061639;28;19970;-91
2022/06/20 02:44:15;;;;;;;;;;;;;;;13.24;71.62;101144.00;5060919;28;19923;-91
2022/06/20 02:46:41;;;;;;;;;;;;;;;13.20;72.90;101151.28;5053832;28;19928;-91
2022/06/20 02:49:09;;;;;;;;;;;;;;;13.16;72.27;101135.53;5036715;28;19995;-91
2022/06/20 02:51:36;;;;;;;;;;;;;;;13.12;73.19;101132.16;5062527;28;19920;-91
2022/06/20 02:54:03;;;;;;;;;;;;;;;13.11;72.66;101126.91;5047425;28;20219;-91
2022/06/20 02:56:31;;;;;;;;;;;;;;;13.08;72.01;101124.41;5042889;28;19920;-91
2022/06/20 02:58:59;;;;;;;;;;;;;;;13.02;73.05;101122.09;5038454;28;19974;-91
2022/06/20 03:01:28;;;;;;;;;;;;;;;12.99;72.30;101117.78;5039690;28;19956;-91
2022/06/20 03:03:55;;;;;;;;;;;;;;;12.97;72.69;101117.00;5038297;28;19920;-91
2022/06/20 03:06:29;;;;;;;;;;;;;;;12.95;74.34;101110.88;5035365;28;19992;-91
2022/06/20 03:08:55;;;;;;;;;;;;;;;12.94;72.04;101117.19;5038884;28;20015;-92
2022/06/20 03:11:21;;;;;;;;;;;;;;;12.94;72.50;101115.34;5039479;28;19927;-91
2022/06/20 03:13:46;;;;;;;;;;;;;;;12.94;73.30;101110.03;5042393;28;20007;-91
2022/06/20 03:16:13;;;;;;;;;;;;;;;12.93;73.02;101113.66;5045540;28;19943;-91
2022/06/20 03:18:42;;;;;;;;;;;;;;;12.89;74.12;101106.75;5048220;28;19917;-91
2022/06/20 03:21:08;;;;;;;;;;;;;;;12.84;72.98;101098.13;5047764;28;19921;-90
2022/06/20 03:23:34;;;;;;;;;;;;;;;12.83;72.88;101116.91;5054476;28;19931;-91
2022/06/20 03:26:01;;;;;;;;;;;;;;;12.81;74.17;101132.16;5045517;28;19931;-91
2022/06/20 03:28:28;;;;;;;;;;;;;;;12.74;74.79;101133.44;5049263;28;19923;-91
2022/06/20 03:30:53;;;;;;;;;;;;;;;12.69;75.53;101141.72;5046655;28;19925;-92
2022/06/20 03:33:21;;;;;;;;;;;;;;;12.67;74.09;101154.31;5043940;28;19970;-90
2022/06/20 03:36:06;;;;;;;;;;;;;;;12.66;74.59;101144.53;5056494;28;20003;-91
2022/06/20 03:38:33;;;;;;;;;;;;;;;12.65;74.12;101156.19;5044877;28;19920;-90
2022/06/20 03:40:58;;;;;;;;;;;;;;;12.63;73.50;101166.09;5059099;28;19932;-91
2022/06/20 03:43:25;;;;;;;;;;;;;;;12.62;74.51;101172.38;5044760;28;19917;-91
2022/06/20 03:45:57;;;;;;;;;;;;;;;12.61;74.65;101173.31;5046041;28;19920;-92
2022/06/20 03:48:27;;;;;;;;;;;;;;;12.60;73.79;101187.63;5046765;28;19916;-92
2022/06/20 03:51:02;;;;;;;;;;;;;;;12.60;73.97;101185.81;5047057;28;19923;-90
2022/06/20 03:53:36;;;;;;;;;;;;;;;12.64;74.26;101198.06;5042475;28;19955;-90
2022/06/20 03:56:05;;;;;;;;;;;;;;;12.65;74.59;101197.09;5035338;28;20332;-90
2022/06/20 03:58:36;;;;;;;;;;;;;;;12.67;74.43;101205.06;5036433;28;19960;-90
2022/06/20 04:01:06;;;;;;;;;;;;;;;12.66;74.45;101205.97;5040155;28;20546;-91
2022/06/20 04:03:34;;;;;;;;;;;;;;;12.71;73.58;101203.94;5037575;28;19921;-91
2022/06/20 04:06:02;;;;;;;;;;;;;;;12.77;73.48;101219.63;5053275;28;19999;-91
2022/06/20 04:11:27;;;;;;;;;;;;;;;12.88;73.11;101219.91;5036855;28;19977;-90
2022/06/20 04:14:09;;;;;;;;;;;;;;;12.92;73.25;101218.78;5052075;28;20209;-90
2022/06/20 04:16:51;;;;;;;;;;;;;;;12.96;72.92;101224.84;5034913;28;21778;-91
2022/06/20 04:19:34;;;;;;;;;;;;;;;12.98;73.31;101225.59;5036318;28;19933;-91
2022/06/20 04:22:12;;;;;;;;;;;;;;;12.99;73.23;101223.78;5034596;28;19982;-91
2022/06/20 04:24:40;;;;;;;;;;;;;;;13.00;73.65;101228.19;5035269;28;20404;-91
2022/06/20 04:27:20;;;;;;;;;;;;;;;13.02;73.34;101229.84;5039120;28;19920;-90
2022/06/20 04:29:52;;;;;;;;;;;;;;;13.02;72.50;101231.66;5044220;28;19916;-90
2022/06/20 04:32:23;;;;;;;;;;;;;;;13.06;73.18;101244.75;5049442;28;19954;-91
2022/06/20 04:34:51;;;;;;;;;;;;;;;13.07;72.37;101250.97;5033914;28;19979;-91
2022/06/20 04:37:23;;;;;;;;;;;;;;;13.10;72.08;101245.44;5047916;28;19999;-90
2022/06/20 04:39:48;;;;;;;;;;;;;;;13.15;72.49;101259.41;5039438;28;20047;-91
2022/06/20 04:42:31;;;;;;;;;;;;;;;13.17;72.82;101255.72;5047412;28;20437;-91
2022/06/20 04:45:00;;;;;;;;;;;;;;;13.21;72.61;101264.44;5046026;28;19967;-91
2022/06/20 04:47:25;;;;;;;;;;;;;;;13.26;71.98;101273.09;5044334;28;19916;-90
2022/06/20 04:49:51;;;;;;;;;;;;;;;13.29;72.47;101269.38;5040881;28;19917;-92
2022/06/20 04:52:19;;;;;;;;;;;;;;;13.30;71.97;101271.13;5032510;28;19952;-91
2022/06/20 04:54:45;;;;;;;;;;;;;;;13.34;72.29;101280.69;5043027;28;19923;-90
2022/06/20 04:57:12;;;;;;;;;;;;;;;13.36;71.99;101286.81;5047754;28;19996;-92
2022/06/20 04:59:37;;;;;;;;;;;;;;;13.41;71.69;101292.75;5045526;28;19916;-91
2022/06/20 05:02:05;;;;;;;;;;;;;;;13.47;72.21;101295.09;5052913;28;19959;-90
2022/06/20 05:04:32;;;;;;;;;;;;;;;13.50;72.02;101286.88;5041189;28;19985;-91
2022/06/20 05:06:59;;;;;;;;;;;;;;;13.54;71.75;101290.25;5042279;28;20393;-90
2022/06/20 05:09:41;;;;;;;;;;;;;;;13.56;71.13;101285.69;5040260;28;19921;-89
2022/06/20 05:12:14;;;;;;;;;;;;;;;13.55;71.86;101271.47;5039619;28;19917;-91
2022/06/20 05:14:58;;;;;;;;;;;;;;;13.55;71.95;101282.16;5034079;28;20014;-92
2022/06/20 05:17:25;;;;;;;;;;;;;;;13.55;72.68;101278.63;5047398;28;20457;-90
2022/06/20 05:19:53;;;;;;;;;;;;;;;13.54;72.07;101282.22;5044192;28;19970;-90
2022/06/20 05:22:20;;;;;;;;;;;;;;;13.54;71.91;101279.56;5049239;28;19944;-89
2022/06/20 05:24:47;;;;;;;;;;;;;;;13.56;71.61;101291.91;5047045;28;20362;-94
2022/06/20 05:27:19;;;;;;;;;;;;;;;13.58;72.10;101298.03;5050674;28;19919;-93
2022/06/20 05:29:45;;;;;;;;;;;;;;;13.63;72.66;101303.13;5049994;28;19916;-90
2022/06/20 05:32:15;;;;;;;;;;;;;;;13.66;71.50;101302.94;5054390;28;19931;-91
2022/06/20 05:34:54;;;;;;;;;;;;;;;13.70;71.91;101294.66;5045645;28;19921;-91
2022/06/20 05:37:35;;;;;;;;;;;;;;;13.72;72.77;101289.25;5038974;28;19936;-93
2022/06/20 05:40:13;;;;;;;;;;;;;;;13.81;72.86;101278.00;5044486;28;19947;-91
2022/06/20 05:42:39;;;;;;;;;;;;;;;13.92;71.15;101275.59;5046978;28;19928;-92
2022/06/20 05:45:18;;;;;;;;;;;;;;;14.07;71.11;101278.31;5046829;28;19928;-91
2022/06/20 05:47:47;;;;;;;;;;;;;;;14.21;70.74;101273.00;5067045;28;19917;-92
2022/06/20 05:50:31;;;;;;;;;;;;;;;14.30;70.25;101264.44;5052550;28;19916;-92
2022/06/20 05:52:57;;;;;;;;;;;;;;;14.32;70.38;101283.06;5058426;28;20324;-91
2022/06/20 05:55:26;;;;;;;;;;;;;;;14.37;70.28;101283.66;5047323;28;19927;-91
2022/06/20 05:57:54;;;;;;;;;;;;;;;14.45;70.14;101289.41;5054218;28;19932;-90
2022/06/20 06:00:21;;;;;;;;;;;;;;;14.58;69.81;101281.53;5042776;28;20043;-91
2022/06/20 06:02:51;;;;;;;;;;;;;;;14.70;69.79;101283.47;5043994;28;20089;-91
2022/06/20 06:05:20;;;;;;;;;;;;;;;14.80;70.17;101284.66;5042331;28;19924;-92
2022/06/20 06:07:51;;;;;;;;;;;;;;;14.81;69.55;101280.16;5041892;28;19917;-92
2022/06/20 06:10:26;;;;;;;;;;;;;;;14.84;70.07;101280.81;5043805;28;19917;-93
2022/06/20 06:12:55;;;;;;;;;;;;;;;14.95;68.52;101278.31;5041647;28;19931;-90
2022/06/20 06:15:21;;;;;;;;;;;;;;;15.11;68.56;101275.53;5041291;28;19917;-89
2022/06/20 06:17:51;;;;;;;;;;;;;;;15.24;68.75;101277.44;5041451;28;19928;-94
2022/06/20 06:20:19;;;;;;;;;;;;;;;15.29;69.00;101281.56;5037370;28;19938;-89
2022/06/20 06:22:47;;;;;;;;;;;;;;;15.30;68.72;101283.31;5037853;28;20297;-89
2022/06/20 06:25:38;;;;;;;;;;;;;;;15.36;68.61;101292.75;5049485;28;20043;-88
2022/06/20 06:28:13;;;;;;;;;;;;;;;15.36;69.01;101288.25;5037324;28;20365;-90
2022/06/20 06:30:56;;;;;;;;;;;;;;;15.33;68.85;101288.44;5043865;28;20415;-90
2022/06/20 06:33:28;;;;;;;;;;;;;;;15.44;69.13;101301.19;5048040;28;19970;-91
2022/06/20 06:36:07;;;;;;;;;;;;;;;15.49;69.04;101296.38;5037047;28;20352;-89
2022/06/20 06:38:36;;;;;;;;;;;;;;;15.61;68.68;101294.72;5040765;28;19916;-90
2022/06/20 06:41:03;;;;;;;;;;;;;;;15.94;67.75;101308.66;5035174;28;20736;-87
2022/06/20 06:43:37;;;;;;;;;;;;;;;16.21;67.64;101310.47;5044970;28;19974;-93
2022/06/20 06:46:03;;;;;;;;;;;;;;;16.39;66.32;101322.69;5054282;28;19917;-89
2022/06/20 06:48:37;;;;;;;;;;;;;;;16.48;65.77;101331.09;5061858;28;19927;-93
2022/06/20 06:51:18;;;;;;;;;;;;;;;16.56;65.17;101323.38;5056431;28;19917;-91
2022/06/20 06:53:55;;;;;;;;;;;;;;;16.76;65.23;101325.56;5062589;28;19977;-90
2022/06/20 06:56:25;;;;;;;;;;;;;;;16.97;64.55;101325.91;5057718;28;19900;-91
2022/06/20 06:59:09;;;;;;;;;;;;;;;16.98;64.10;101327.63;5055776;28;20027;-89
2022/06/20 07:01:40;;;;;;;;;;;;;;;16.88;63.95;101326.53;5056097;28;19909;-90
2022/06/20 07:04:16;;;;;;;;;;;;;;;16.87;64.39;101330.19;5066676;28;19901;-89
2022/06/20 07:06:43;;;;;;;;;;;;;;;16.86;63.41;101334.72;5066551;28;20354;-90
2022/06/20 07:09:13;;;;;;;;;;;;;;;17.03;62.97;101336.22;5060861;28;19916;-90
2022/06/20 07:11:43;;;;;;;;;;;;;;;17.48;63.40;101333.06;5033305;28;20350;-90
2022/06/20 07:14:21;;;;;;;;;;;;;;;18.02;61.25;101341.66;5031139;28;19912;-90
2022/06/20 07:16:58;;;;;;;;;;;;;;;18.35;61.27;101346.38;5031708;28;19917;-91
2022/06/20 07:19:25;;;;;;;;;;;;;;;18.60;60.55;101345.34;5036211;28;19960;-90
2022/06/20 07:21:51;;;;;;;;;;;;;;;19.06;59.50;101349.03;5042725;28;19947;-90
2022/06/20 07:24:27;;;;;;;;;;;;;;;19.54;56.84;101351.50;5053684;28;19912;-90
2022/06/20 07:26:59;;;;;;;;;;;;;;;19.82;56.72;101347.47;5053657;28;20374;-90
2022/06/20 07:29:27;;;;;;;;;;;;;;;20.02;56.56;101356.63;5043294;28;19913;-90
2022/06/20 07:31:56;;;;;;;;;;;;;;;20.16;55.14;101350.94;5048531;28;20382;-91
2022/06/20 07:34:39;;;;;;;;;;;;;;;20.08;54.01;101351.56;5033493;28;19919;-90
2022/06/20 07:37:31;;;;;;;;;;;;;;;19.65;54.90;101354.25;5033331;28;19913;-91
2022/06/20 07:39:56;;;;;;;;;;;;;;;19.68;55.55;101350.41;5047983;28;19916;-90
2022/06/20 07:42:45;;;;;;;;;;;;;;;20.15;56.04;101352.78;5053658;28;20285;-91
2022/06/20 07:45:18;;;;;;;;;;;;;;;20.64;51.90;101364.91;5054156;28;19913;-90
2022/06/20 07:47:49;;;;;;;;;;;;;;;20.27;51.61;101368.94;5053268;28;19920;-90
2022/06/20 07:50:17;;;;;;;;;;;;;;;19.63;52.14;101358.91;5036450;28;19917;-90
2022/06/20 07:52:48;;;;;;;;;;;;;;;19.76;53.75;101347.97;5033250;28;20330;-90
2022/06/20 07:55:17;;;;;;;;;;;;;;;20.15;53.19;101360.91;5060975;28;20011;-90
2022/06/20 07:57:51;;;;;;;;;;;;;;;20.89;49.51;101360.94;5053306;28;20007;-90
2022/06/20 08:00:18;;;;;;;;;;;;;;;21.44;49.12;101366.13;5049298;28;19917;-88
2022/06/20 08:02:49;;;;;;;;;;;;;;;22.17;47.22;101366.81;5054219;28;19924;-90
2022/06/20 08:05:43;;;;;;;;;;;;;;;23.15;46.60;101364.91;5053751;28;20366;-89
2022/06/20 08:08:19;;;;;;;;;;;;;;;24.00;39.97;101363.88;5036224;28;20563;-88
2022/06/20 08:11:01;;;;;;;;;;;;;;;24.48;40.37;101371.69;5040296;28;19917;-90
2022/06/20 08:13:36;;;;;;;;;;;;;;;25.16;40.04;101362.03;5034692;28;20000;-89
2022/06/20 08:16:10;;;;;;;;;;;;;;;25.58;38.70;101356.66;5042804;28;20285;-87
2022/06/20 08:18:35;;;;;;;;;;;;;;;26.03;39.24;101361.78;5044182;28;20282;-89
2022/06/20 08:21:26;;;;;;;;;;;;;;;25.84;40.02;101367.53;5052887;28;19916;-90
2022/06/20 08:24:01;;;;;;;;;;;;;;;25.63;39.62;101381.56;5051544;28;19920;-90
2022/06/20 08:26:30;;;;;;;;;;;;;;;24.92;42.26;101382.63;5051704;28;20388;-89
2022/06/20 08:29:01;;;;;;;;;;;;;;;23.80;44.13;101379.44;5051024;28;20685;-89
2022/06/20 08:31:31;;;;;;;;;;;;;;;22.97;41.73;101395.53;5051065;28;20363;-90
2022/06/20 08:34:01;;;;;;;;;;;;;;;22.17;42.68;101388.50;5051320;28;19912;-89
2022/06/20 08:36:30;;;;;;;;;;;;;;;22.46;42.75;101393.97;5053471;28;19951;-89
2022/06/20 08:39:00;;;;;;;;;;;;;;;22.89;42.53;101387.22;5050612;28;20263;-90
2022/06/20 08:41:41;;;;;;;;;;;;;;;22.33;41.71;101394.25;5052802;28;19917;-89
2022/06/20 08:44:06;;;;;;;;;;;;;;;21.35;42.90;101392.16;5053060;28;19913;-89
2022/06/20 08:46:34;;;;;;;;;;;;;;;20.64;43.30;101402.75;5052926;28;19908;-90
2022/06/20 08:49:22;;;;;;;;;;;;;;;19.73;44.68;101404.91;5050741;28;19928;-90
2022/06/20 08:52:10;;;;;;;;;;;;;;;19.89;47.67;101406.25;5053083;28;19927;-89
2022/06/20 08:54:53;;;;;;;;;;;;;;;22.61;41.05;101403.41;5052963;28;19913;-90
2022/06/20 08:57:43;;;;;;;;;;;;;;;24.71;39.75;101393.88;5053008;28;19999;-90
2022/06/20 09:00:24;;;;;;;;;;;;;;;26.51;36.37;101416.69;5059116;28;19970;-91
2022/06/20 09:02:58;;;;;;;;;;;;;;;25.58;36.79;101408.44;5066117;28;19924;-90
2022/06/20 09:05:30;;;;;;;;;;;;;;;24.07;36.02;101414.75;5070049;28;19921;-91
2022/06/20 09:08:02;;;;;;;;;;;;;;;23.75;39.21;101414.38;5063594;28;20230;-90
2022/06/20 09:10:45;;;;;;;;;;;;;;;24.08;40.13;101416.47;5063792;28;19905;-90
2022/06/20 09:13:20;;;;;;;;;;;;;;;26.22;36.86;101414.38;5069939;28;19920;-90
2022/06/20 09:15:56;;;;;;;;;;;;;;;26.26;36.66;101416.59;5064692;28;20370;-89
2022/06/20 09:18:24;;;;;;;;;;;;;;;27.44;34.65;101419.06;5065272;28;20054;-90
2022/06/20 09:20:49;;;;;;;;;;;;;;;28.90;28.79;101424.84;5050581;28;19921;-91
2022/06/20 09:23:17;;;;;;;;;;;;;;;29.83;31.62;101420.84;5048030;28;19925;-91
2022/06/20 09:25:52;;;;;;;;;;;;;;;31.00;30.36;101429.81;5051598;28;19913;-91
2022/06/20 09:28:32;;;;;;;;;;;;;;;32.22;25.86;101430.19;5052959;28;19916;-93
2022/06/20 09:31:14;;;;;;;;;;;;;;;33.07;27.85;101430.63;5037323;28;19927;-91
2022/06/20 09:33:47;;;;;;;;;;;;;;;33.04;27.23;101428.28;5056774;28;20007;-91
2022/06/20 09:36:32;;;;;;;;;;;;;;;31.95;29.33;101432.00;5054595;28;19912;-92
2022/06/20 09:39:05;;;;;;;;;;;;;;;31.83;27.99;101436.34;5045719;28;19923;-89
2022/06/20 09:41:36;;;;;;;;;;;;;;;30.55;30.87;101429.13;5055855;28;19917;-91
2022/06/20 09:44:07;;;;;;;;;;;;;;;30.07;32.06;101430.69;5054165;28;20320;-92
2022/06/20 09:46:32;;;;;;;;;;;;;;;29.90;29.96;101432.78;5054154;28;19913;-91
2022/06/20 09:49:16;;;;;;;;;;;;;;;28.24;32.82;101425.28;5051733;28;19952;-90
2022/06/20 09:51:42;;;;;;;;;;;;;;;26.38;32.41;101435.38;5036678;28;19923;-92
2022/06/20 09:54:16;;;;;;;;;;;;;;;25.33;34.33;101432.84;5050550;28;19913;-92
2022/06/20 09:56:52;;;;;;;;;;;;;;;24.63;35.50;101442.78;5050685;28;20069;-91
2022/06/20 09:59:23;;;;;;;;;;;;;;;24.07;36.90;101438.38;5047450;28;19969;-90
2022/06/20 10:01:54;;;;;;;;;;;;;;;24.02;36.90;101432.53;5035811;28;20557;-92
2022/06/20 10:04:27;;;;;;;;;;;;;;;25.79;34.64;101436.22;5051416;28;19924;-91
2022/06/20 10:07:07;;;;;;;;;;;;;;;28.31;32.70;101441.84;5050552;28;19924;-91
2022/06/20 10:09:32;;;;;;;;;;;;;;;30.48;29.92;101444.72;5046336;28;19924;-91
2022/06/20 10:12:00;;;;;;;;;;;;;;;30.31;30.55;101451.47;5047197;28;19912;-91
2022/06/20 10:14:36;;;;;;;;;;;;;;;30.87;29.79;101436.06;5037203;28;19913;-90
2022/06/20 10:17:10;;;;;;;;;;;;;;;31.49;26.90;101450.97;5034441;28;19939;-89
2022/06/20 10:19:38;;;;;;;;;;;;;;;32.08;25.51;101444.97;5052741;28;20027;-91
2022/06/20 10:22:15;;;;;;;;;;;;;;;31.47;28.29;101442.91;5053312;28;19919;-91
2022/06/20 10:24:46;;;;;;;;;;;;;;;31.24;23.32;101445.88;5044482;28;19927;-93
2022/06/20 10:27:11;;;;;;;;;;;;;;;31.85;21.99;101444.44;5044911;28;19940;-92
2022/06/20 10:29:55;;;;;;;;;;;;;;;32.81;25.91;101444.34;5050886;28;20294;-94
2022/06/20 10:32:25;;;;;;;;;;;;;;;34.30;21.05;101438.22;5054404;28;20386;-92
2022/06/20 10:34:59;;;;;;;;;;;;;;;35.15;22.04;101456.16;5054529;28;19978;-92
2022/06/20 10:37:29;;;;;;;;;;;;;;;35.42;21.77;101458.72;5051278;28;20015;-93
2022/06/20 10:40:00;;;;;;;;;;;;;;;35.10;22.85;101461.53;5053390;28;19916;-93
2022/06/20 10:42:30;;;;;;;;;;;;;;;34.77;23.54;101466.44;5051991;28;20301;-92
2022/06/20 10:45:08;;;;;;;;;;;;;;;34.48;25.22;101463.22;5049450;28;20425;-93
2022/06/20 10:47:51;;;;;;;;;;;;;;;33.21;25.67;101470.09;5043746;28;19960;-93
2022/06/20 10:50:16;;;;;;;;;;;;;;;32.28;26.06;101474.53;5029796;28;20185;-93
2022/06/20 10:52:51;;;;;;;;;;;;;;;30.67;28.24;101477.03;5030148;28;19928;-91
2022/06/20 10:55:22;;;;;;;;;;;;;;;31.63;27.04;101474.75;5046442;28;19919;-91
2022/06/20 10:58:03;;;;;;;;;;;;;;;32.31;22.75;101483.19;5045566;28;19917;-91
2022/06/20 11:00:32;;;;;;;;;;;;;;;32.75;25.03;101470.84;5050241;28;19994;-93
2022/06/20 11:03:10;;;;;;;;;;;;;;;32.73;24.94;101472.97;5034565;28;19940;-93
2022/06/20 11:05:51;;;;;;;;;;;;;;;31.39;26.32;101492.56;5027313;28;19913;-93
2022/06/20 11:08:40;;;;;;;;;;;;;;;30.15;28.49;101489.09;5037600;28;20128;-92
2022/06/20 11:11:10;;;;;;;;;;;;;;;31.35;25.59;101493.16;5044970;28;19913;-92
2022/06/20 11:13:54;;;;;;;;;;;;;;;32.31;24.60;101502.47;5036125;28;20350;-92
2022/06/20 11:16:48;;;;;;;;;;;;;;;30.56;26.62;101494.06;5032124;28;19920;-94
2022/06/20 11:19:25;;;;;;;;;;;;;;;29.05;28.50;101499.75;5024984;28;19917;-95
2022/06/20 11:22:09;;;;;;;;;;;;;;;29.13;27.97;101491.47;5029825;28;19924;-93
2022/06/20 11:24:53;;;;;;;;;;;;;;;28.95;27.52;101499.13;5034769;28;19917;-93
2022/06/20 11:27:37;;;;;;;;;;;;;;;31.36;25.74;101501.25;5048269;28;19917;-94
2022/06/20 11:30:11;;;;;;;;;;;;;;;32.99;21.90;101485.16;5050164;28;19920;-95
2022/06/20 11:32:37;;;;;;;;;;;;;;;32.51;24.82;101486.06;5049553;28;19916;-94
2022/06/20 11:35:17;;;;;;;;;;;;;;;32.29;25.19;101489.97;5049403;28;20134;-94
2022/06/20 11:37:46;;;;;;;;;;;;;;;30.42;23.44;101495.78;5047833;28;19916;-94
2022/06/20 11:40:13;;;;;;;;;;;;;;;28.36;26.10;101491.47;5050078;28;19924;-93
2022/06/20 11:42:57;;;;;;;;;;;;;;;28.10;29.00;101486.25;5049185;28;19920;-94
2022/06/20 11:45:40;;;;;;;;;;;;;;;30.66;27.07;101489.06;5048540;28;20057;-95
2022/06/20 11:48:17;;;;;;;;;;;;;;;33.10;24.88;101478.97;5036589;28;19924;-93
2022/06/20 11:50:51;;;;;;;;;;;;;;;34.07;23.87;101483.81;5030353;28;20315;-94
2022/06/20 11:53:35;;;;;;;;;;;;;;;35.42;21.91;101484.47;5042403;28;19912;-94
2022/06/20 11:56:19;;;;;;;;;;;;;;;34.03;23.07;101476.13;5049042;28;20352;-95
2022/06/20 11:58:57;;;;;;;;;;;;;;;31.33;24.99;101474.13;5029233;28;19962;-94
2022/06/20 12:01:26;;;;;;;;;;;;;;;31.70;25.01;101475.66;5049572;28;20329;-93
2022/06/20 12:04:00;;;;;;;;;;;;;;;33.65;23.44;101476.84;5051820;28;19916;-94
2022/06/20 12:06:27;;;;;;;;;;;;;;;34.96;20.34;101475.69;5055537;28;20317;-93
2022/06/20 12:09:02;;;;;;;;;;;;;;;35.55;20.46;101488.22;5053914;28;19927;-94
2022/06/20 12:11:29;;;;;;;;;;;;;;;36.81;20.59;101490.31;5055380;28;19935;-93
2022/06/20 12:13:55;;;;;;;;;;;;;;;37.79;19.94;101485.25;5055824;28;19912;-94
2022/06/20 12:16:32;;;;;;;;;;;;;;;38.37;17.95;101476.81;5053311;28;19912;-94
2022/06/20 12:24:46;;;;;;;;;;;;;;;37.96;17.25;101472.34;5045146;28;19944;-94
2022/06/20 12:27:13;;;;;;;;;;;;;;;37.11;19.48;101472.78;5057933;28;19916;-93
2022/06/20 12:29:39;;;;;;;;;;;;;;;35.41;17.95;101477.25;5067230;28;19912;-96
2022/06/20 12:32:10;;;;;;;;;;;;;;;35.31;19.09;101471.34;5069681;28;20007;-94
2022/06/20 12:34:58;;;;;;;;;;;;;;;36.54;18.92;101461.31;5067830;28;19987;-92
2022/06/20 12:37:35;;;;;;;;;;;;;;;37.20;17.55;101460.25;5069354;28;19943;-93
2022/06/20 12:40:03;;;;;;;;;;;;;;;37.42;18.21;101468.03;5073970;28;19967;-93
2022/06/20 12:42:38;;;;;;;;;;;;;;;37.70;16.42;101464.50;5072531;28;19916;-91
2022/06/20 12:45:06;;;;;;;;;;;;;;;38.31;17.81;101468.63;5067438;28;19919;-93
2022/06/20 12:47:40;;;;;;;;;;;;;;;36.81;18.92;101478.38;5051522;28;20050;-91
2022/06/20 12:50:15;;;;;;;;;;;;;;;35.06;20.67;101467.75;5049106;28;19924;-92
2022/06/20 12:52:51;;;;;;;;;;;;;;;36.35;19.71;101477.94;5046640;28;19917;-92
2022/06/20 12:55:28;;;;;;;;;;;;;;;37.98;18.24;101472.09;5041736;28;19913;-92
2022/06/20 12:58:03;;;;;;;;;;;;;;;39.13;18.40;101475.72;5056799;28;19924;-93
2022/06/20 13:00:28;;;;;;;;;;;;;;;39.68;17.00;101470.25;5055897;28;19986;-93
2022/06/20 13:03:12;;;;;;;;;;;;;;;39.20;17.44;101473.59;5051386;28;19917;-91
2022/06/20 13:05:37;;;;;;;;;;;;;;;37.97;18.16;101465.69;5034916;28;19980;-93
2022/06/20 13:08:21;;;;;;;;;;;;;;;35.28;20.60;101468.19;5036664;28;19913;-91